createdAt,value
2023-09-17T00:01:20.596Z,6.05
2023-09-17T00:03:47.504Z,6.75
2023-09-17T00:06:15.648Z,7.75
2023-09-17T00:08:42.390Z,6.97
2023-09-17T00:11:09.791Z,7.50
2023-09-17T00:13:36.904Z,8.45
2023-09-17T00:16:03.796Z,8.20
2023-09-17T00:18:30.648Z,6.82
2023-09-17T00:20:57.666Z,6.88
2023-09-17T00:23:25.992Z,6.20
2023-09-17T00:25:53.071Z,6.95
2023-09-17T00:28:19.855Z,7.38
2023-09-17T00:30:46.653Z,5.03
2023-09-17T00:33:13.650Z,5.43
2023-09-17T00:35:40.345Z,6.32
2023-09-17T00:38:07.154Z,7.22
2023-09-17T00:40:38.560Z,6.55
2023-09-17T00:43:05.447Z,5.50
2023-09-17T00:45:33.188Z,6.78
2023-09-17T00:48:02.613Z,6.90
2023-09-17T00:50:29.608Z,7.57
2023-09-17T00:52:56.386Z,6.90
2023-09-17T00:55:23.258Z,7.68
2023-09-17T00:57:51.548Z,7.10
2023-09-17T01:00:22.444Z,7.40
2023-09-17T01:02:49.916Z,7.47
2023-09-17T01:05:17.384Z,8.35
2023-09-17T01:07:45.566Z,8.80
2023-09-17T01:10:12.657Z,8.40
2023-09-17T01:12:40.018Z,7.68
2023-09-17T01:15:11.309Z,8.25
2023-09-17T01:17:38.544Z,9.50
2023-09-17T01:20:29.918Z,9.15
2023-09-17T01:23:00.428Z,8.45
2023-09-17T01:25:43.688Z,10.63
2023-09-17T01:28:13.532Z,8.65
2023-09-17T01:30:43.253Z,10.52
2023-09-17T01:33:13.050Z,9.20
2023-09-17T01:35:49.188Z,9.65
2023-09-17T01:38:20.006Z,9.52
2023-09-17T01:40:49.761Z,8.23
2023-09-17T01:43:21.617Z,8.23
2023-09-17T01:45:48.964Z,10.60
2023-09-17T01:48:17.255Z,9.55
2023-09-17T01:50:45.184Z,10.40
2023-09-17T01:53:14.956Z,9.55
2023-09-17T01:55:43.341Z,8.80
2023-09-17T01:58:11.487Z,8.98
2023-09-17T02:00:40.236Z,8.27
2023-09-17T02:03:07.267Z,9.02
2023-09-17T02:05:34.143Z,9.45
2023-09-17T02:08:00.946Z,9.25
2023-09-17T02:10:27.740Z,8.60
2023-09-17T02:12:54.496Z,9.13
2023-09-17T02:15:21.482Z,11.35
2023-09-17T02:17:51.998Z,10.18
2023-09-17T02:20:19.289Z,8.73
2023-09-17T02:22:46.855Z,9.57
2023-09-17T02:25:13.789Z,9.25
2023-09-17T02:27:41.796Z,9.30
2023-09-17T02:30:09.943Z,9.40
2023-09-17T02:32:38.828Z,9.77
2023-09-17T02:35:09.512Z,10.05
2023-09-17T02:37:36.943Z,8.52
2023-09-17T02:40:05.795Z,10.10
2023-09-17T02:42:32.557Z,8.15
2023-09-17T02:44:59.382Z,10.85
2023-09-17T02:47:27.910Z,9.70
2023-09-17T02:49:54.775Z,10.18
2023-09-17T02:52:23.226Z,9.43
2023-09-17T02:54:50.089Z,9.63
2023-09-17T02:57:17.293Z,8.95
2023-09-17T02:59:44.120Z,8.55
2023-09-17T03:02:10.900Z,8.77
2023-09-17T03:04:37.781Z,9.20
2023-09-17T03:07:05.563Z,9.18
2023-09-17T03:09:35.175Z,10.10
2023-09-17T03:12:02.935Z,8.52
2023-09-17T03:14:29.702Z,10.75
2023-09-17T03:16:56.757Z,10.15
2023-09-17T03:19:23.866Z,8.93
2023-09-17T03:21:50.577Z,8.65
2023-09-17T03:24:18.169Z,9.65
2023-09-17T03:26:46.240Z,10.40
2023-09-17T03:29:13.838Z,7.82
2023-09-17T03:31:42.407Z,9.80
2023-09-17T03:34:09.232Z,9.63
2023-09-17T03:36:36.659Z,8.90
2023-09-17T03:39:06.860Z,9.63
2023-09-17T03:41:34.064Z,10.30
2023-09-17T03:44:02.282Z,9.35
2023-09-17T03:46:31.450Z,9.35
2023-09-17T03:48:58.373Z,8.25
2023-09-17T03:51:25.318Z,8.93
2023-09-17T03:53:52.564Z,8.60
2023-09-17T03:56:19.627Z,9.40
2023-09-17T03:58:46.589Z,10.00
2023-09-17T04:01:15.140Z,8.82
2023-09-17T04:03:42.178Z,10.43
2023-09-17T04:06:09.099Z,9.32
2023-09-17T04:08:36.273Z,8.77
2023-09-17T04:11:05.424Z,9.77
2023-09-17T04:13:33.267Z,9.45
2023-09-17T04:16:00.092Z,9.48
2023-09-17T04:18:28.252Z,9.20
2023-09-17T04:20:54.988Z,9.10
2023-09-17T04:23:21.884Z,9.70
2023-09-17T04:25:48.859Z,10.07
2023-09-17T04:28:15.630Z,10.02
2023-09-17T04:30:42.308Z,10.05
2023-09-17T04:33:09.157Z,9.50
2023-09-17T04:35:37.822Z,10.20
2023-09-17T04:38:05.420Z,11.00
2023-09-17T04:40:32.379Z,9.45
2023-09-17T04:42:59.094Z,9.43
2023-09-17T04:45:35.198Z,10.40
2023-09-17T04:48:02.214Z,11.07
2023-09-17T04:50:29.576Z,10.65
2023-09-17T04:52:57.947Z,11.27
2023-09-17T04:55:26.399Z,11.98
2023-09-17T04:57:53.610Z,11.40
2023-09-17T05:00:21.596Z,9.50
2023-09-17T05:02:52.201Z,10.63
2023-09-17T05:05:24.076Z,11.00
2023-09-17T05:07:53.766Z,9.98
2023-09-17T05:10:22.482Z,10.57
2023-09-17T05:12:49.597Z,9.80
2023-09-17T05:15:16.460Z,12.20
2023-09-17T05:17:43.512Z,12.30
2023-09-17T05:20:12.444Z,11.48
2023-09-17T05:22:39.354Z,10.93
2023-09-17T05:25:09.430Z,10.32
2023-09-17T05:27:38.309Z,10.07
2023-09-17T05:30:06.709Z,10.70
2023-09-17T05:32:33.565Z,9.20
2023-09-17T05:35:07.199Z,9.50
2023-09-17T05:37:33.911Z,10.32
2023-09-17T05:40:00.851Z,10.95
2023-09-17T05:42:27.661Z,10.38
2023-09-17T05:44:55.733Z,10.95
2023-09-17T05:47:22.565Z,9.88
2023-09-17T05:49:49.598Z,9.25
2023-09-17T05:52:17.604Z,10.88
2023-09-17T05:54:44.339Z,9.65
2023-09-17T05:57:11.287Z,10.73
2023-09-17T05:59:38.094Z,10.82
2023-09-17T06:02:06.526Z,8.93
2023-09-17T06:04:33.594Z,11.25
2023-09-17T06:07:00.260Z,8.75
2023-09-17T06:09:27.120Z,9.10
2023-09-17T06:11:53.927Z,9.68
2023-09-17T06:14:20.837Z,8.25
2023-09-17T06:16:57.592Z,9.40
2023-09-17T06:19:28.479Z,8.93
2023-09-17T06:21:55.278Z,8.05
2023-09-17T06:24:22.220Z,9.00
2023-09-17T06:26:48.969Z,10.30
2023-09-17T06:29:15.772Z,9.57
2023-09-17T06:31:43.071Z,8.38
2023-09-17T06:34:10.812Z,9.18
2023-09-17T06:36:39.369Z,8.63
2023-09-17T06:39:07.552Z,7.85
2023-09-17T06:41:37.441Z,9.02
2023-09-17T06:46:33.242Z,8.48
2023-09-17T06:49:00.252Z,7.85
2023-09-17T06:51:27.147Z,8.02
2023-09-17T06:53:55.250Z,9.00
2023-09-17T06:56:25.014Z,8.13
2023-09-17T06:58:51.982Z,7.93
2023-09-17T07:01:19.466Z,7.40
2023-09-17T07:03:46.228Z,7.82
2023-09-17T07:06:13.012Z,9.43
2023-09-17T07:08:40.000Z,8.15
2023-09-17T07:11:08.110Z,7.40
2023-09-17T07:13:35.316Z,7.50
2023-09-17T07:16:02.179Z,7.63
2023-09-17T07:18:31.598Z,10.30
2023-09-17T07:20:58.684Z,7.50
2023-09-17T07:23:26.725Z,10.30
2023-09-17T07:25:53.575Z,7.28
2023-09-17T07:28:22.213Z,7.55
2023-09-17T07:30:55.076Z,8.80
2023-09-17T07:33:22.006Z,7.10
2023-09-17T07:35:49.503Z,8.18
2023-09-17T07:38:17.384Z,6.80
2023-09-17T07:40:44.509Z,8.38
2023-09-17T07:43:12.130Z,8.35
2023-09-17T07:45:40.283Z,6.60
2023-09-17T07:48:07.513Z,8.68
2023-09-17T07:50:34.354Z,8.90
2023-09-17T07:53:01.164Z,7.82
2023-09-17T07:55:28.025Z,8.43
2023-09-17T07:57:56.053Z,8.43
2023-09-17T08:00:22.941Z,9.18
2023-09-17T08:02:51.680Z,7.95
2023-09-17T08:05:19.058Z,6.90
2023-09-17T08:07:46.920Z,9.63
2023-09-17T08:10:14.132Z,6.85
2023-09-17T08:12:40.892Z,7.20
2023-09-17T08:15:09.115Z,7.85
2023-09-17T08:17:36.080Z,8.98
2023-09-17T08:20:05.919Z,8.18
2023-09-17T08:22:33.779Z,8.18
2023-09-17T08:25:00.686Z,8.02
2023-09-17T08:27:27.577Z,9.13
2023-09-17T08:29:54.307Z,9.65
2023-09-17T08:32:21.069Z,9.13
2023-09-17T08:34:48.028Z,7.35
2023-09-17T08:37:17.173Z,8.90
2023-09-17T08:39:43.873Z,10.15
2023-09-17T08:42:11.859Z,9.75
2023-09-17T08:44:39.670Z,10.57
2023-09-17T08:47:06.626Z,9.15
2023-09-17T08:49:33.583Z,9.18
2023-09-17T08:52:05.280Z,10.23
2023-09-17T08:54:39.014Z,10.32
2023-09-17T08:57:07.328Z,9.82
2023-09-17T08:59:38.702Z,14.43
2023-09-17T09:04:37.905Z,11.50
2023-09-17T09:07:07.175Z,10.40
2023-09-17T09:09:37.411Z,12.00
2023-09-17T09:12:05.246Z,12.40
2023-09-17T09:14:32.240Z,10.10
2023-09-17T09:17:01.591Z,12.07
2023-09-17T09:19:28.353Z,12.10
2023-09-17T09:21:55.550Z,11.10
2023-09-17T09:24:24.424Z,13.27
2023-09-17T09:26:53.354Z,12.07
2023-09-17T09:29:21.591Z,11.38
2023-09-17T09:31:48.589Z,13.30
2023-09-17T09:34:15.477Z,13.98
2023-09-17T09:36:45.803Z,13.20
2023-09-17T09:39:16.230Z,12.75
2023-09-17T09:41:43.730Z,14.63
2023-09-17T09:44:11.822Z,12.43
2023-09-17T09:46:38.587Z,12.88
2023-09-17T09:49:06.057Z,11.60
2023-09-17T09:51:37.099Z,11.48
2023-09-17T09:54:04.845Z,11.13
2023-09-17T09:56:32.363Z,12.43
2023-09-17T09:59:00.589Z,11.77
2023-09-17T10:01:29.722Z,14.25
2023-09-17T10:04:00.113Z,13.55
2023-09-17T10:06:27.445Z,14.13
2023-09-17T10:08:55.042Z,14.75
2023-09-17T10:11:22.643Z,16.40
2023-09-17T10:13:49.835Z,15.27
2023-09-17T10:16:17.155Z,14.02
2023-09-17T10:18:46.493Z,14.35
2023-09-17T10:21:15.780Z,15.32
2023-09-17T10:23:43.301Z,15.23
2023-09-17T10:26:11.470Z,13.35
2023-09-17T10:28:39.616Z,15.18
2023-09-17T10:31:09.252Z,15.88
2023-09-17T10:33:37.623Z,13.38
2023-09-17T10:36:09.110Z,14.85
2023-09-17T10:38:37.109Z,17.63
2023-09-17T10:41:06.474Z,14.73
2023-09-17T10:43:36.246Z,17.63
2023-09-17T10:46:04.736Z,16.00
2023-09-17T10:48:33.119Z,14.30
2023-09-17T10:51:00.698Z,15.15
2023-09-17T10:53:29.451Z,15.30
2023-09-17T10:56:01.937Z,15.60
2023-09-17T10:58:34.590Z,16.00
2023-09-17T11:01:02.673Z,18.27
2023-09-17T11:03:34.787Z,18.70
2023-09-17T11:06:07.341Z,16.23
2023-09-17T11:08:35.886Z,18.15
2023-09-17T11:11:04.983Z,16.00
2023-09-17T11:13:31.960Z,14.05
2023-09-17T11:16:01.120Z,16.67
2023-09-17T11:18:27.885Z,16.50
2023-09-17T11:21:01.994Z,16.67
2023-09-17T11:23:43.433Z,14.35
2023-09-17T11:26:12.985Z,16.30
2023-09-17T11:28:46.479Z,16.80
2023-09-17T11:31:16.239Z,16.33
2023-09-17T11:33:43.816Z,17.52
2023-09-17T11:36:11.454Z,17.00
2023-09-17T11:38:46.533Z,18.35
2023-09-17T11:41:19.514Z,18.77
2023-09-17T11:43:49.929Z,19.27
2023-09-17T11:46:17.782Z,19.67
2023-09-17T11:48:45.969Z,19.50
2023-09-17T11:51:23.960Z,18.02
2023-09-17T11:53:58.503Z,16.13
2023-09-17T11:56:28.251Z,17.98
2023-09-17T11:59:04.082Z,17.05
2023-09-17T12:01:35.217Z,16.17
2023-09-17T12:04:06.345Z,16.30
2023-09-17T12:06:37.031Z,20.15
2023-09-17T12:09:17.380Z,21.02
2023-09-17T12:11:47.716Z,21.20
2023-09-17T12:14:15.257Z,19.95
2023-09-17T12:16:42.417Z,15.50
2023-09-17T12:19:17.803Z,18.65
2023-09-17T12:21:47.158Z,15.90
2023-09-17T12:24:26.376Z,17.27
2023-09-17T12:27:07.832Z,17.50
2023-09-17T12:29:35.236Z,19.35
2023-09-17T12:32:03.785Z,16.45
2023-09-17T12:34:31.079Z,14.75
2023-09-17T12:36:57.940Z,16.83
2023-09-17T12:39:26.310Z,19.33
2023-09-17T12:41:53.719Z,17.88
2023-09-17T12:44:20.703Z,17.23
2023-09-17T12:46:48.754Z,15.80
2023-09-17T12:49:15.753Z,18.00
2023-09-17T12:51:42.637Z,16.48
2023-09-17T12:54:10.196Z,16.55
2023-09-17T12:56:39.391Z,17.92
2023-09-17T12:59:06.400Z,16.33
2023-09-17T13:01:33.418Z,16.35
2023-09-17T13:04:05.856Z,20.80
2023-09-17T13:06:36.126Z,18.00
2023-09-17T13:09:03.701Z,17.55
2023-09-17T13:11:31.217Z,16.85
2023-09-17T13:14:01.003Z,18.10
2023-09-17T13:16:27.899Z,17.15
2023-09-17T13:18:56.367Z,16.50
2023-09-17T13:21:23.458Z,17.85
2023-09-17T13:23:50.490Z,17.27
2023-09-17T13:26:17.506Z,18.15
2023-09-17T13:28:44.437Z,16.95
2023-09-17T13:31:12.602Z,17.67
2023-09-17T13:33:40.036Z,16.65
2023-09-17T13:36:10.446Z,15.73
2023-09-17T13:38:41.980Z,18.13
2023-09-17T13:41:09.201Z,17.33
2023-09-17T13:43:36.201Z,15.95
2023-09-17T13:46:03.874Z,16.75
2023-09-17T13:48:32.096Z,15.70
2023-09-17T13:50:59.195Z,16.02
2023-09-17T13:53:26.036Z,16.90
2023-09-17T13:55:53.029Z,15.50
2023-09-17T13:58:19.887Z,12.73
2023-09-17T14:00:46.590Z,15.63
2023-09-17T14:03:15.892Z,14.75
2023-09-17T14:05:45.033Z,14.02
2023-09-17T14:08:12.790Z,13.02
2023-09-17T14:10:42.438Z,14.20
2023-09-17T14:13:09.789Z,14.88
2023-09-17T14:15:37.976Z,11.90
2023-09-17T14:18:04.996Z,10.20
2023-09-17T14:20:32.019Z,11.00
2023-09-17T14:23:01.500Z,9.88
2023-09-17T14:25:28.314Z,11.77
2023-09-17T14:27:55.079Z,10.52
2023-09-17T14:30:24.478Z,9.25
2023-09-17T14:32:55.527Z,11.40
2023-09-17T14:37:49.597Z,9.63
2023-09-17T14:40:18.065Z,10.35
2023-09-17T14:42:44.912Z,10.82
2023-09-17T14:45:11.690Z,13.27
2023-09-17T14:47:40.444Z,13.63
2023-09-17T14:50:09.734Z,10.52
2023-09-17T14:52:37.337Z,11.27
2023-09-17T14:55:05.471Z,12.65
2023-09-17T14:57:37.026Z,13.00
2023-09-17T15:00:06.235Z,10.85
2023-09-17T15:02:33.462Z,12.20
2023-09-17T15:05:02.436Z,10.30
2023-09-17T15:07:29.385Z,12.32
2023-09-17T15:09:56.199Z,13.35
2023-09-17T15:12:22.935Z,12.77
2023-09-17T15:14:51.614Z,12.65
2023-09-17T15:17:19.457Z,11.75
2023-09-17T15:19:46.406Z,11.40
2023-09-17T15:22:13.355Z,12.73
2023-09-17T15:24:40.198Z,12.93
2023-09-17T15:27:06.971Z,12.90
2023-09-17T15:29:33.678Z,13.88
2023-09-17T15:32:02.165Z,15.57
2023-09-17T15:34:29.678Z,12.88
2023-09-17T15:36:56.560Z,11.98
2023-09-17T15:39:25.661Z,11.43
2023-09-17T15:41:53.576Z,14.07
2023-09-17T15:44:22.648Z,11.02
2023-09-17T15:46:49.614Z,10.95
2023-09-17T15:49:17.863Z,13.38
2023-09-17T15:51:44.660Z,14.27
2023-09-17T15:54:11.608Z,13.02
2023-09-17T15:56:38.469Z,12.15
2023-09-17T15:59:05.606Z,11.15
2023-09-17T16:01:32.480Z,12.75
2023-09-17T16:03:59.411Z,12.48
2023-09-17T16:06:27.815Z,12.32
2023-09-17T16:08:55.148Z,12.27
2023-09-17T16:11:22.054Z,12.85
2023-09-17T16:13:48.912Z,11.73
2023-09-17T16:16:15.760Z,11.93
2023-09-17T16:18:43.187Z,11.80
2023-09-17T16:21:11.989Z,12.50
2023-09-17T16:23:41.528Z,11.05
2023-09-17T16:26:08.366Z,10.25
2023-09-17T16:28:36.229Z,12.52
2023-09-17T16:31:03.186Z,11.50
2023-09-17T16:33:30.027Z,12.45
2023-09-17T16:35:56.842Z,11.15
2023-09-17T16:38:23.642Z,14.15
2023-09-17T16:40:51.973Z,13.02
2023-09-17T16:43:18.840Z,14.35
2023-09-17T16:45:46.307Z,12.88
2023-09-17T16:48:13.472Z,11.13
2023-09-17T16:50:40.176Z,11.75
2023-09-17T16:53:07.985Z,12.40
2023-09-17T16:55:37.391Z,12.38
2023-09-17T16:58:07.068Z,10.95
2023-09-17T17:00:34.061Z,11.25
2023-09-17T17:03:00.969Z,10.55
2023-09-17T17:05:27.990Z,10.13
2023-09-17T17:07:55.076Z,10.35
2023-09-17T17:10:21.974Z,11.77
2023-09-17T17:12:48.667Z,10.13
2023-09-17T17:15:16.784Z,10.15
2023-09-17T17:17:43.617Z,11.35
2023-09-17T17:20:11.193Z,10.35
2023-09-17T17:22:45.197Z,8.48
2023-09-17T17:25:12.439Z,8.75
2023-09-17T17:27:39.305Z,10.13
2023-09-17T17:30:10.691Z,8.35
2023-09-17T17:32:41.980Z,10.10
2023-09-17T17:35:09.626Z,9.25
2023-09-17T17:37:36.819Z,9.68
2023-09-17T17:40:04.003Z,9.02
2023-09-17T17:42:30.834Z,9.75
2023-09-17T17:44:57.707Z,9.32
2023-09-17T17:47:24.934Z,9.55
2023-09-17T17:49:55.120Z,9.63
2023-09-17T17:52:22.171Z,8.77
2023-09-17T17:54:49.273Z,10.43
2023-09-17T17:57:16.596Z,8.25
2023-09-17T17:59:43.417Z,9.05
2023-09-17T18:02:10.499Z,9.50
2023-09-17T18:04:38.311Z,9.00
2023-09-17T18:07:06.475Z,10.57
2023-09-17T18:09:33.323Z,8.13
2023-09-17T18:12:01.075Z,8.88
2023-09-17T18:14:27.863Z,9.18
2023-09-17T18:16:55.348Z,9.80
2023-09-17T18:19:22.152Z,8.13
2023-09-17T18:21:49.623Z,8.77
2023-09-17T18:24:17.867Z,9.38
2023-09-17T18:26:45.171Z,8.75
2023-09-17T18:29:12.236Z,9.75
2023-09-17T18:31:39.165Z,8.30
2023-09-17T18:34:06.016Z,8.13
2023-09-17T18:36:35.637Z,9.00
2023-09-17T18:39:02.616Z,7.85
2023-09-17T18:41:30.832Z,7.43
2023-09-17T18:43:57.869Z,9.13
2023-09-17T18:46:25.542Z,8.10
2023-09-17T18:48:52.313Z,8.65
2023-09-17T18:51:21.542Z,7.75
2023-09-17T18:53:48.512Z,8.63
2023-09-17T18:56:16.028Z,7.88
2023-09-17T18:58:44.181Z,10.02
2023-09-17T19:01:11.199Z,8.98
2023-09-17T19:03:38.293Z,8.52
2023-09-17T19:06:06.680Z,7.20
2023-09-17T19:08:36.210Z,7.88
2023-09-17T19:11:04.549Z,8.18
2023-09-17T19:13:31.440Z,9.18
2023-09-17T19:15:59.558Z,8.65
2023-09-17T19:18:26.434Z,8.77
2023-09-17T19:21:06.921Z,9.45
2023-09-17T19:23:33.671Z,9.45
2023-09-17T19:26:00.591Z,8.30
2023-09-17T19:28:27.356Z,11.77
2023-09-17T19:30:54.070Z,8.35
2023-09-17T19:33:22.398Z,9.25
2023-09-17T19:35:49.126Z,9.13
2023-09-17T19:38:15.908Z,14.90
2023-09-17T19:40:42.657Z,8.40
2023-09-17T19:43:09.392Z,9.07
2023-09-17T19:45:36.219Z,8.88
2023-09-17T19:48:05.241Z,8.88
2023-09-17T19:50:33.841Z,10.02
2023-09-17T19:53:00.786Z,12.02
2023-09-17T19:55:27.712Z,10.65
2023-09-17T19:57:54.540Z,9.18
2023-09-17T20:00:21.351Z,9.73
2023-09-17T20:02:48.178Z,10.63
2023-09-17T20:05:15.246Z,8.85
2023-09-17T20:07:43.427Z,10.25
2023-09-17T20:10:15.729Z,10.43
2023-09-17T20:12:42.733Z,9.95
2023-09-17T20:15:11.310Z,11.45
2023-09-17T20:17:38.190Z,9.82
2023-09-17T20:20:06.104Z,9.88
2023-09-17T20:22:42.099Z,11.45
2023-09-17T20:25:11.401Z,11.25
2023-09-17T20:27:38.557Z,11.60
2023-09-17T20:30:06.537Z,9.85
2023-09-17T20:32:33.391Z,11.55
2023-09-17T20:35:00.206Z,9.43
2023-09-17T20:37:26.987Z,10.82
2023-09-17T20:39:53.683Z,10.15
2023-09-17T20:42:22.250Z,11.73
2023-09-17T20:44:49.097Z,9.35
2023-09-17T20:47:15.900Z,10.68
2023-09-17T20:49:42.707Z,12.05
2023-09-17T20:52:09.510Z,12.18
2023-09-17T20:54:36.309Z,13.20
2023-09-17T20:57:03.448Z,11.43
2023-09-17T20:59:33.107Z,11.30
2023-09-17T21:02:01.097Z,9.70
2023-09-17T21:04:29.581Z,10.25
2023-09-17T21:06:56.345Z,10.82
2023-09-17T21:09:27.698Z,10.85
2023-09-17T21:11:55.028Z,10.85
2023-09-17T21:14:22.031Z,10.02
2023-09-17T21:16:50.340Z,12.70
2023-09-17T21:19:17.105Z,11.68
2023-09-17T21:21:44.005Z,10.48
2023-09-17T21:24:10.817Z,11.00
2023-09-17T21:26:37.696Z,12.20
2023-09-17T21:29:04.838Z,12.98
2023-09-17T21:31:31.974Z,12.20
2023-09-17T21:34:00.133Z,11.55
2023-09-17T21:36:26.913Z,12.23
2023-09-17T21:38:54.019Z,12.60
2023-09-17T21:41:21.003Z,11.68
2023-09-17T21:43:47.708Z,12.52
2023-09-17T21:46:14.453Z,9.77
2023-09-17T21:48:41.292Z,12.02
2023-09-17T21:51:09.378Z,10.68
2023-09-17T21:53:36.111Z,11.88
2023-09-17T21:56:03.025Z,12.93
2023-09-17T21:58:29.960Z,11.40
2023-09-17T22:00:56.822Z,14.20
2023-09-17T22:03:23.693Z,14.88
2023-09-17T22:05:51.543Z,13.60
2023-09-17T22:08:21.204Z,12.30
2023-09-17T22:10:48.176Z,13.35
2023-09-17T22:13:16.850Z,12.38
2023-09-17T22:15:44.615Z,12.70
2023-09-17T22:18:13.886Z,13.00
2023-09-17T22:20:42.429Z,10.27
2023-09-17T22:23:09.160Z,11.98
2023-09-17T22:25:39.902Z,14.15
2023-09-17T22:28:07.269Z,12.07
2023-09-17T22:30:34.214Z,11.45
2023-09-17T22:33:01.207Z,12.05
2023-09-17T22:35:28.049Z,11.63
2023-09-17T22:37:54.905Z,11.65
2023-09-17T22:40:21.665Z,12.50
2023-09-17T22:42:49.827Z,12.60
2023-09-17T22:45:16.637Z,12.90
2023-09-17T22:47:43.422Z,11.30
2023-09-17T22:50:10.761Z,11.55
2023-09-17T22:52:37.610Z,11.15
2023-09-17T22:55:04.832Z,10.55
2023-09-17T22:57:31.540Z,10.80
2023-09-17T22:59:59.612Z,11.93
2023-09-17T23:02:27.995Z,10.80
2023-09-17T23:04:55.901Z,10.70
2023-09-17T23:07:22.698Z,10.13
2023-09-17T23:09:51.291Z,11.10
2023-09-17T23:12:18.015Z,9.95
2023-09-17T23:14:44.745Z,10.43
2023-09-17T23:17:12.890Z,12.00
2023-09-17T23:19:39.986Z,9.45
2023-09-17T23:22:06.824Z,12.27
2023-09-17T23:24:33.859Z,11.05
2023-09-17T23:27:00.569Z,10.32
2023-09-17T23:29:28.322Z,11.07
2023-09-17T23:31:55.197Z,8.80
2023-09-17T23:34:25.706Z,13.20
2023-09-17T23:36:52.654Z,12.30
2023-09-17T23:39:19.448Z,10.90
2023-09-17T23:41:46.161Z,10.50
2023-09-17T23:44:13.728Z,10.40
2023-09-17T23:46:40.772Z,10.57
2023-09-17T23:49:07.613Z,10.98
2023-09-17T23:51:35.725Z,11.35
2023-09-17T23:54:02.467Z,10.20
2023-09-17T23:56:29.320Z,11.00
2023-09-17T23:58:56.195Z,10.65
